Time;durP1;ratioP1;P1;durP2;ratioP2;P2;SDS_P1;SDS_P2;PMS_P1;PMS_P2;Temp;Humidity;BMP_temperature;BMP_pressure;BME280_temperature;BME280_humidity;BME280_pressure;Samples;Min_cycle;Max_cycle;Signal;HPM_P1;HPM_P2
2022/08/10 00:01:24;;;;;;;11.10;9.93;;;16.40;99.90;;;;;;5036004;28;20052;-68
2022/08/10 00:03:49;;;;;;;10.48;9.13;;;16.40;99.90;;;;;;5035756;28;20410;-69
2022/08/10 00:06:15;;;;;;;10.68;9.25;;;16.30;99.90;;;;;;5035425;28;20049;-69
2022/08/10 00:08:41;;;;;;;10.50;9.20;;;16.30;99.90;;;;;;5035387;28;20033;-67
2022/08/10 00:11:07;;;;;;;11.82;10.57;;;16.30;99.90;;;;;;5018010;28;20095;-68
2022/08/10 00:13:33;;;;;;;11.98;9.27;;;16.30;99.90;;;;;;5035405;28;20041;-70
2022/08/10 00:15:58;;;;;;;10.40;9.30;;;16.30;99.90;;;;;;5035417;28;20045;-68
2022/08/10 00:18:25;;;;;;;10.73;9.60;;;16.30;99.90;;;;;;5035281;28;20087;-70
2022/08/10 00:20:51;;;;;;;11.90;9.15;;;16.30;99.90;;;;;;5035204;28;20045;-68
2022/08/10 00:23:16;;;;;;;10.00;8.63;;;16.20;99.90;;;;;;5035407;28;20125;-69
2022/08/10 00:25:42;;;;;;;10.50;9.15;;;16.20;99.90;;;;;;5034489;28;20183;-70
2022/08/10 00:28:07;;;;;;;14.13;9.23;;;16.20;99.90;;;;;;5018014;28;20049;-68
2022/08/10 00:30:33;;;;;;;11.45;8.88;;;16.20;99.90;;;;;;5018000;28;20042;-68
2022/08/10 00:32:59;;;;;;;10.32;9.07;;;16.20;99.90;;;;;;5017576;28;20092;-68
2022/08/10 00:35:24;;;;;;;12.30;9.35;;;16.20;99.90;;;;;;5017503;28;20120;-68
2022/08/10 00:37:50;;;;;;;10.85;8.98;;;16.20;99.90;;;;;;5034959;28;20091;-68
2022/08/10 00:40:15;;;;;;;12.70;9.90;;;16.10;99.90;;;;;;5035008;28;20045;-66
2022/08/10 00:42:41;;;;;;;9.40;8.30;;;16.10;99.90;;;;;;5035105;28;20154;-71
2022/08/10 00:45:07;;;;;;;12.27;9.10;;;16.20;99.90;;;;;;5034995;28;20033;-69
2022/08/10 00:47:32;;;;;;;11.73;9.13;;;16.10;99.90;;;;;;5035047;28;20436;-69
2022/08/10 00:49:58;;;;;;;10.57;8.10;;;16.10;99.90;;;;;;5034926;28;20452;-69
2022/08/10 00:52:26;;;;;;;10.20;8.25;;;16.10;99.90;;;;;;5017791;28;20061;-68
2022/08/10 00:54:52;;;;;;;11.88;8.30;;;16.10;99.90;;;;;;5034904;28;20052;-68
2022/08/10 00:57:18;;;;;;;10.48;8.10;;;16.10;99.90;;;;;;5034870;28;20114;-72
2022/08/10 00:59:44;;;;;;;10.23;7.80;;;16.10;99.90;;;;;;5034945;28;20045;-68
2022/08/10 01:02:10;;;;;;;9.77;8.10;;;16.10;99.90;;;;;;5034864;28;20045;-67
2022/08/10 01:04:35;;;;;;;11.13;8.23;;;16.10;99.90;;;;;;5034871;28;20494;-67
2022/08/10 01:07:18;;;;;;;8.45;7.55;;;16.10;99.90;;;;;;5034912;28;20053;-68
2022/08/10 01:09:55;;;;;;;10.35;7.90;;;16.10;99.90;;;;;;5034961;28;20080;-68
2022/08/10 01:12:32;;;;;;;11.20;8.32;;;16.10;99.90;;;;;;5034842;28;20049;-69
2022/08/10 01:15:29;;;;;;;9.57;7.45;;;16.00;99.90;;;;;;5034770;28;20052;-68
2022/08/10 01:18:25;;;;;;;11.05;7.57;;;16.00;99.90;;;;;;4983714;28;20085;-71
2022/08/10 01:21:38;;;;;;;11.35;7.93;;;16.10;99.90;;;;;;5033728;28;20451;-68
2022/08/10 01:24:29;;;;;;;8.18;7.38;;;16.00;99.90;;;;;;5017425;28;20045;-68
2022/08/10 01:27:20;;;;;;;10.50;7.70;;;16.00;99.90;;;;;;5034661;28;20409;-68
2022/08/10 01:29:49;;;;;;;10.27;7.07;;;16.00;99.90;;;;;;5017167;28;20088;-69
2022/08/10 01:32:22;;;;;;;11.07;8.23;;;16.00;99.90;;;;;;5034534;28;20057;-70
2022/08/10 01:35:09;;;;;;;10.70;8.32;;;16.00;99.90;;;;;;5034140;28;20459;-70
2022/08/10 01:37:42;;;;;;;9.00;7.15;;;16.00;99.90;;;;;;5019668;28;20455;-69
2022/08/10 01:40:12;;;;;;;9.40;7.47;;;16.00;99.90;;;;;;5020880;28;20053;-70
2022/08/10 01:42:41;;;;;;;10.70;7.75;;;16.00;99.90;;;;;;5038002;28;20452;-67
2022/08/10 01:45:09;;;;;;;8.27;7.40;;;16.00;99.90;;;;;;5038183;28;20489;-69
2022/08/10 01:50:32;;;;;;;8.43;7.60;;;16.00;99.90;;;;;;5038028;28;20384;-68
2022/08/10 01:53:04;;;;;;;10.05;6.95;;;16.00;99.90;;;;;;5038132;28;20110;-68
2022/08/10 01:55:30;;;;;;;12.38;8.13;;;16.10;99.90;;;;;;5037976;28;20045;-67
2022/08/10 01:58:01;;;;;;;12.23;8.32;;;16.00;99.90;;;;;;5038104;28;20089;-70
2022/08/10 02:00:29;;;;;;;12.02;7.75;;;16.00;99.90;;;;;;5038096;28;20050;-68
2022/08/10 02:02:57;;;;;;;10.50;8.07;;;16.00;99.90;;;;;;5037996;28;20147;-68
2022/08/10 02:05:25;;;;;;;11.27;8.63;;;16.00;99.90;;;;;;5037716;28;20104;-67
2022/08/10 02:07:55;;;;;;;10.82;8.40;;;16.00;99.90;;;;;;5020159;28;20061;-67
2022/08/10 02:10:23;;;;;;;12.45;9.68;;;16.00;99.90;;;;;;5037766;28;20121;-69
2022/08/10 02:12:50;;;;;;;15.48;9.25;;;16.00;99.90;;;;;;5037880;28;20045;-67
2022/08/10 02:15:19;;;;;;;12.35;9.10;;;16.00;99.90;;;;;;5020165;28;20049;-68
2022/08/10 02:17:52;;;;;;;11.82;8.32;;;16.00;99.90;;;;;;5019825;28;20045;-68
2022/08/10 02:20:20;;;;;;;10.95;9.05;;;16.00;99.90;;;;;;5037522;28;20140;-68
2022/08/10 02:22:50;;;;;;;12.73;9.32;;;16.00;99.90;;;;;;5037513;28;20041;-67
2022/08/10 02:25:18;;;;;;;9.65;8.32;;;15.90;99.90;;;;;;5037339;28;20045;-69
2022/08/10 02:27:46;;;;;;;11.65;8.90;;;15.90;99.90;;;;;;5037569;28;20064;-70
2022/08/10 02:30:12;;;;;;;9.93;8.65;;;15.90;99.90;;;;;;5037284;28;20053;-66
2022/08/10 02:32:39;;;;;;;10.43;8.52;;;15.90;99.90;;;;;;5037274;28;20042;-67
2022/08/10 02:35:09;;;;;;;14.18;10.40;;;15.80;99.90;;;;;;5037237;28;20048;-69
2022/08/10 02:37:37;;;;;;;13.25;9.23;;;15.80;99.90;;;;;;5037501;28;20072;-69
2022/08/10 02:40:03;;;;;;;14.70;10.13;;;15.80;99.90;;;;;;5037222;28;20045;-70
2022/08/10 02:42:44;;;;;;;13.07;9.70;;;15.80;99.90;;;;;;5037183;28;20084;-67
2022/08/10 02:45:24;;;;;;;11.18;8.38;;;15.80;99.90;;;;;;5019685;28;20057;-67
2022/08/10 02:47:58;;;;;;;11.70;9.43;;;15.80;99.90;;;;;;5019298;28;20111;-70
2022/08/10 02:50:35;;;;;;;9.77;8.05;;;15.70;99.90;;;;;;5036803;28;20352;-70
2022/08/10 02:53:05;;;;;;;11.57;10.23;;;15.70;99.90;;;;;;5036975;28;20088;-67
2022/08/10 02:55:41;;;;;;;11.52;9.38;;;15.70;99.90;;;;;;5019275;28;20059;-68
2022/08/10 02:58:10;;;;;;;15.02;9.65;;;15.70;99.90;;;;;;5019709;28;20049;-70
2022/08/10 03:00:45;;;;;;;12.38;9.70;;;15.70;99.90;;;;;;5036915;28;20060;-67
2022/08/10 03:03:17;;;;;;;12.95;8.13;;;15.60;99.90;;;;;;5019579;28;20049;-69
2022/08/10 03:05:46;;;;;;;9.65;8.30;;;15.60;99.90;;;;;;5036683;28;20076;-67
2022/08/10 03:08:15;;;;;;;8.93;7.90;;;15.50;99.90;;;;;;5036556;28;20051;-68
2022/08/10 03:10:42;;;;;;;10.07;8.88;;;15.50;99.90;;;;;;5019212;28;20049;-69
2022/08/10 03:13:10;;;;;;;12.77;8.63;;;15.50;99.90;;;;;;5036613;28;20053;-67
2022/08/10 03:15:37;;;;;;;10.63;8.30;;;15.40;99.90;;;;;;5036764;28;20072;-69
2022/08/10 03:18:04;;;;;;;9.88;7.82;;;15.40;99.90;;;;;;5036286;28;20049;-67
2022/08/10 03:20:35;;;;;;;11.95;8.30;;;15.40;99.90;;;;;;5019172;28;20452;-67
2022/08/10 03:23:04;;;;;;;10.27;7.75;;;15.40;99.90;;;;;;5018926;28;20045;-68
2022/08/10 03:25:30;;;;;;;12.15;8.18;;;15.40;99.90;;;;;;5036319;28;20064;-70
2022/08/10 03:27:58;;;;;;;8.60;7.35;;;15.40;99.90;;;;;;5019132;28;20120;-71
2022/08/10 03:30:25;;;;;;;8.73;7.57;;;15.40;99.90;;;;;;5036303;28;20045;-68
2022/08/10 03:32:52;;;;;;;10.20;8.00;;;15.40;99.90;;;;;;5036247;28;20049;-67
2022/08/10 03:35:17;;;;;;;9.93;8.65;;;15.30;99.90;;;;;;5036111;28;20038;-69
2022/08/10 03:37:43;;;;;;;10.27;9.00;;;15.40;99.90;;;;;;5036139;28;20127;-68
2022/08/10 03:40:09;;;;;;;11.10;9.18;;;15.40;99.90;;;;;;5036185;28;20191;-68
2022/08/10 03:42:38;;;;;;;10.23;8.82;;;15.30;99.90;;;;;;5035838;28;20098;-66
2022/08/10 03:45:05;;;;;;;10.43;8.45;;;15.30;99.90;;;;;;5036048;28;20478;-67
2022/08/10 03:47:33;;;;;;;10.30;7.90;;;15.30;99.90;;;;;;5035840;28;20398;-68
2022/08/10 03:50:01;;;;;;;10.75;9.65;;;15.30;99.90;;;;;;5018519;28;20062;-68
2022/08/10 03:52:27;;;;;;;13.32;10.35;;;15.30;99.90;;;;;;5157676;22;20055;-68
2022/08/10 03:54:53;;;;;;;10.73;9.30;;;15.40;99.90;;;;;;5095658;28;20356;-68
2022/08/10 03:57:20;;;;;;;11.38;9.25;;;15.30;99.90;;;;;;5089770;28;20072;-68
2022/08/10 03:59:46;;;;;;;12.88;9.75;;;15.40;99.90;;;;;;5075102;28;20120;-69
2022/08/10 04:02:13;;;;;;;13.73;10.85;;;15.40;99.90;;;;;;5068591;28;20094;-67
2022/08/10 04:04:39;;;;;;;11.52;9.85;;;15.30;99.90;;;;;;5095695;28;20044;-67
2022/08/10 04:07:05;;;;;;;11.00;9.02;;;15.30;99.90;;;;;;5095667;28;20046;-68
2022/08/10 04:09:33;;;;;;;9.30;8.35;;;15.30;99.90;;;;;;5095636;28;20113;-68
2022/08/10 04:11:58;;;;;;;10.02;8.63;;;15.30;99.90;;;;;;5095696;28;20036;-69
2022/08/10 04:14:24;;;;;;;11.60;8.95;;;15.30;99.90;;;;;;5095693;28;20054;-68
2022/08/10 04:16:50;;;;;;;11.27;9.35;;;15.30;99.90;;;;;;5095757;28;20214;-70
2022/08/10 04:19:17;;;;;;;10.70;9.18;;;15.30;99.90;;;;;;5095439;28;20427;-68
2022/08/10 04:21:46;;;;;;;12.15;10.05;;;15.30;99.90;;;;;;5077912;28;20052;-67
2022/08/10 04:24:17;;;;;;;9.63;8.15;;;15.20;99.90;;;;;;5095581;28;20051;-67
2022/08/10 04:26:44;;;;;;;10.75;8.82;;;15.30;99.90;;;;;;5095494;28;20040;-69
2022/08/10 04:29:10;;;;;;;9.35;8.35;;;15.30;99.90;;;;;;5095339;28;20089;-69
2022/08/10 04:31:37;;;;;;;10.77;8.43;;;15.30;99.90;;;;;;5095169;28;20059;-68
2022/08/10 04:34:03;;;;;;;11.55;8.77;;;15.30;99.90;;;;;;5095073;28;20438;-67
2022/08/10 04:36:30;;;;;;;12.50;8.60;;;15.30;99.90;;;;;;5095233;28;20101;-67
2022/08/10 04:38:56;;;;;;;13.77;9.10;;;15.30;99.90;;;;;;5095291;28;20051;-69
2022/08/10 04:41:22;;;;;;;11.60;9.20;;;15.30;99.90;;;;;;5095425;28;20123;-67
2022/08/10 04:43:47;;;;;;;10.02;8.75;;;15.40;99.90;;;;;;5095050;28;20044;-67
2022/08/10 04:46:13;;;;;;;11.05;9.43;;;15.50;99.90;;;;;;5094961;28;20059;-68
2022/08/10 04:48:39;;;;;;;13.95;10.63;;;15.50;99.90;;;;;;5077669;28;20084;-70
2022/08/10 04:51:04;;;;;;;10.68;9.15;;;15.50;99.90;;;;;;5095021;28;20079;-70
2022/08/10 04:53:31;;;;;;;14.15;10.77;;;15.60;99.90;;;;;;5094951;28;20081;-69
2022/08/10 04:55:56;;;;;;;14.43;11.00;;;15.60;99.90;;;;;;5095094;28;20044;-69
2022/08/10 04:58:22;;;;;;;13.02;10.32;;;15.60;99.90;;;;;;5095121;28;20044;-68
2022/08/10 05:00:48;;;;;;;19.60;10.57;;;15.70;99.90;;;;;;5077421;28;20040;-70
2022/08/10 05:03:13;;;;;;;16.77;11.50;;;15.70;99.90;;;;;;5095175;28;20140;-67
2022/08/10 05:05:39;;;;;;;11.68;9.65;;;15.80;99.90;;;;;;5077171;28;20048;-68
2022/08/10 05:08:04;;;;;;;14.60;11.45;;;15.80;99.90;;;;;;5095033;28;20070;-68
2022/08/10 05:10:30;;;;;;;12.15;10.73;;;15.80;99.90;;;;;;5095144;28;20052;-72
2022/08/10 05:12:56;;;;;;;13.77;11.60;;;15.80;99.90;;;;;;5080007;28;20075;-71
2022/08/10 05:15:23;;;;;;;13.30;10.77;;;15.90;99.90;;;;;;5099033;28;20080;-69
2022/08/10 05:17:49;;;;;;;12.07;10.70;;;15.90;99.90;;;;;;5081333;28;20109;-70
2022/08/10 05:20:15;;;;;;;12.68;9.77;;;15.90;99.90;;;;;;5098866;28;20047;-68
2022/08/10 05:22:43;;;;;;;14.90;10.57;;;15.90;99.90;;;;;;5098828;28;20047;-70
2022/08/10 05:25:14;;;;;;;12.43;9.40;;;15.90;99.90;;;;;;5098941;28;20083;-69
2022/08/10 05:27:40;;;;;;;12.10;9.77;;;16.00;99.90;;;;;;5098799;28;20036;-69
2022/08/10 05:30:09;;;;;;;10.63;9.05;;;15.90;99.90;;;;;;5098626;28;20446;-71
2022/08/10 05:32:36;;;;;;;10.48;8.98;;;16.00;99.90;;;;;;5098643;28;20051;-67
2022/08/10 05:35:02;;;;;;;10.88;9.77;;;16.00;99.90;;;;;;5081006;28;20480;-69
2022/08/10 05:37:29;;;;;;;9.93;8.35;;;15.90;99.90;;;;;;5080640;28;20466;-68
2022/08/10 05:39:55;;;;;;;10.80;9.15;;;16.00;99.90;;;;;;5080835;28;20127;-69
2022/08/10 05:42:22;;;;;;;11.43;9.55;;;16.00;99.90;;;;;;5098440;28;20127;-69
2022/08/10 05:44:48;;;;;;;10.70;8.63;;;16.00;99.90;;;;;;5098283;28;20080;-67
2022/08/10 05:47:15;;;;;;;11.55;9.73;;;15.90;99.90;;;;;;5080449;28;20189;-67
2022/08/10 05:49:41;;;;;;;10.20;9.10;;;16.00;99.90;;;;;;5098333;28;20088;-67
2022/08/10 05:52:06;;;;;;;13.48;9.55;;;16.10;99.90;;;;;;5098261;28;20068;-69
2022/08/10 05:54:32;;;;;;;13.48;9.15;;;16.00;99.90;;;;;;5098216;28;20040;-68
2022/08/10 05:56:58;;;;;;;10.10;9.07;;;16.10;99.90;;;;;;5080343;28;20044;-68
2022/08/10 05:59:32;;;;;;;12.68;9.90;;;16.10;99.90;;;;;;5098237;28;20063;-69
2022/08/10 06:02:01;;;;;;;;;;;16.20;99.90;;;;;;5098588;28;20055;-70
2022/08/10 06:04:32;;;;;;;12.93;11.15;;;16.30;99.90;;;;;;5098327;28;19924;-68
2022/08/10 06:07:00;;;;;;;12.85;11.20;;;16.30;99.90;;;;;;5098131;28;20454;-69
2022/08/10 06:09:26;;;;;;;12.25;10.95;;;16.40;99.90;;;;;;5098036;28;20131;-67
2022/08/10 06:11:56;;;;;;;12.20;10.52;;;16.50;99.90;;;;;;5097892;28;20052;-69
2022/08/10 06:17:07;;;;;;;13.90;11.52;;;16.70;99.90;;;;;;5097858;28;20078;-69
2022/08/10 06:19:34;;;;;;;13.60;12.02;;;16.80;99.90;;;;;;5097839;28;20044;-71
2022/08/10 06:22:01;;;;;;;17.27;12.10;;;16.90;99.90;;;;;;5097216;28;20485;-68
2022/08/10 06:24:32;;;;;;;13.63;10.60;;;17.00;99.90;;;;;;5096489;28;20126;-68
2022/08/10 06:26:58;;;;;;;14.45;11.68;;;17.00;99.90;;;;;;5097642;28;20040;-69
2022/08/10 06:29:27;;;;;;;12.63;10.77;;;17.10;99.90;;;;;;5097469;28;20450;-67
2022/08/10 06:31:54;;;;;;;15.80;11.02;;;17.20;99.90;;;;;;5097533;28;20363;-69
2022/08/10 06:34:32;;;;;;;15.40;9.98;;;17.40;99.90;;;;;;5097524;28;20474;-69
2022/08/10 06:37:00;;;;;;;15.00;9.90;;;17.40;99.90;;;;;;5097274;28;20127;-70
2022/08/10 06:39:26;;;;;;;14.18;10.10;;;17.50;99.90;;;;;;5079641;28;20377;-70
2022/08/10 06:42:00;;;;;;;12.98;9.85;;;17.60;99.90;;;;;;5097031;28;20408;-71
2022/08/10 06:44:31;;;;;;;9.02;8.07;;;17.70;99.90;;;;;;5097304;28;20048;-68
2022/08/10 06:46:59;;;;;;;11.63;8.18;;;17.80;99.90;;;;;;5097271;28;20048;-69
2022/08/10 06:49:25;;;;;;;10.93;9.02;;;18.00;99.90;;;;;;5097114;28;20074;-69
2022/08/10 06:51:54;;;;;;;12.93;8.15;;;18.00;99.90;;;;;;5079015;28;20048;-68
2022/08/10 06:54:26;;;;;;;10.48;8.77;;;18.10;99.90;;;;;;5097465;28;20044;-69
2022/08/10 06:56:55;;;;;;;12.30;8.70;;;18.20;99.90;;;;;;5097148;28;20404;-71
2022/08/10 06:59:40;;;;;;;13.43;8.50;;;18.30;99.90;;;;;;5096931;28;20052;-69
2022/08/10 07:02:14;;;;;;;11.65;8.25;;;18.50;99.90;;;;;;5096926;28;20080;-69
2022/08/10 07:04:59;;;;;;;12.52;8.40;;;18.60;99.90;;;;;;5096892;28;20048;-69
2022/08/10 07:07:28;;;;;;;11.48;7.25;;;18.70;99.90;;;;;;5096397;28;20122;-69
2022/08/10 07:09:56;;;;;;;9.50;6.78;;;18.80;99.90;;;;;;5096816;28;20044;-69
2022/08/10 07:12:22;;;;;;;9.02;6.53;;;18.90;99.90;;;;;;5096676;28;20051;-71
2022/08/10 07:14:50;;;;;;;7.45;6.53;;;19.00;99.90;;;;;;5096643;28;20189;-70
2022/08/10 07:17:19;;;;;;;9.57;6.18;;;19.10;99.90;;;;;;5096891;28;20048;-69
2022/08/10 07:19:47;;;;;;;11.27;6.72;;;19.20;99.90;;;;;;5096191;28;20048;-69
2022/08/10 07:22:15;;;;;;;7.75;6.10;;;19.30;99.90;;;;;;5095968;28;20462;-67
2022/08/10 07:24:42;;;;;;;10.80;7.13;;;19.40;99.90;;;;;;5096491;28;20347;-69
2022/08/10 07:27:09;;;;;;;9.13;5.95;;;19.40;99.90;;;;;;5096471;28;20063;-68
2022/08/10 07:29:36;;;;;;;12.35;6.78;;;19.50;99.90;;;;;;5096320;28;20051;-67
2022/08/10 07:32:04;;;;;;;8.45;6.10;;;19.70;99.90;;;;;;5096368;28;20048;-69
2022/08/10 07:34:31;;;;;;;8.60;5.82;;;19.70;99.90;;;;;;5096298;28;20359;-71
2022/08/10 07:37:03;;;;;;;10.27;6.15;;;19.80;99.90;;;;;;5096180;28;20055;-69
2022/08/10 07:39:32;;;;;;;7.10;5.25;;;19.90;99.90;;;;;;5096189;28;20043;-66
2022/08/10 07:41:59;;;;;;;8.10;6.00;;;19.90;99.90;;;;;;5096281;28;20054;-71
2022/08/10 07:44:30;;;;;;;10.43;5.53;;;20.10;99.90;;;;;;5096094;28;20044;-72
2022/08/10 07:46:59;;;;;;;10.38;4.93;;;20.10;99.90;;;;;;5096265;28;20047;-68
2022/08/10 07:49:28;;;;;;;9.73;5.05;;;20.20;99.90;;;;;;5096081;28;20036;-69
2022/08/10 07:51:56;;;;;;;7.35;4.88;;;20.30;99.90;;;;;;5095760;28;20044;-69
2022/08/10 07:54:24;;;;;;;7.22;5.18;;;20.40;99.90;;;;;;5060618;28;20134;-68
2022/08/10 07:56:54;;;;;;;12.77;4.93;;;20.50;99.90;;;;;;5095928;28;20036;-71
2022/08/10 07:59:26;;;;;;;5.78;4.50;;;20.60;99.90;;;;;;5096094;28;20048;-69
2022/08/10 08:01:54;;;;;;;6.82;4.25;;;20.60;99.90;;;;;;5095705;28;20130;-71
2022/08/10 08:04:22;;;;;;;5.97;4.28;;;20.70;99.90;;;;;;5095319;28;20454;-70
2022/08/10 08:06:50;;;;;;;7.50;5.07;;;20.70;99.90;;;;;;5095681;28;20047;-69
2022/08/10 08:09:19;;;;;;;7.68;4.40;;;20.80;99.90;;;;;;5095858;28;20048;-67
2022/08/10 08:11:45;;;;;;;8.13;4.15;;;20.90;99.90;;;;;;5095675;28;20062;-67
2022/08/10 08:14:13;;;;;;;7.25;4.75;;;20.90;99.90;;;;;;5095701;28;20047;-70
2022/08/10 08:16:45;;;;;;;6.90;4.90;;;21.00;99.90;;;;;;5095625;28;20407;-71
2022/08/10 08:19:12;;;;;;;7.38;4.50;;;21.10;99.90;;;;;;5095370;28;20234;-72
2022/08/10 08:21:39;;;;;;;10.90;5.13;;;21.10;99.90;;;;;;5077837;28;20430;-70
2022/08/10 08:24:06;;;;;;;9.68;4.78;;;21.20;99.90;;;;;;5095560;28;20091;-69
2022/08/10 08:26:33;;;;;;;8.70;4.28;;;21.30;99.90;;;;;;5095603;28;20109;-70
2022/08/10 08:28:59;;;;;;;10.30;4.95;;;21.30;99.90;;;;;;5095302;28;20512;-69
2022/08/10 08:31:26;;;;;;;6.18;4.57;;;21.40;99.90;;;;;;5077640;28;20383;-69
2022/08/10 08:33:54;;;;;;;6.18;4.15;;;21.50;99.90;;;;;;5095340;28;20052;-69
2022/08/10 08:36:21;;;;;;;5.28;4.00;;;21.60;99.90;;;;;;5077711;28;20045;-68
2022/08/10 08:38:47;;;;;;;7.50;4.35;;;21.60;99.90;;;;;;5095373;28;20077;-67
2022/08/10 08:41:46;;;;;;;10.90;5.15;;;21.60;99.90;;;;;;5095107;28;20426;-67
2022/08/10 08:44:18;;;;;;;7.15;4.45;;;21.70;99.90;;;;;;5094810;28;20343;-68
2022/08/10 08:47:04;;;;;;;6.03;4.20;;;21.60;99.90;;;;;;5094584;28;20036;-72
2022/08/10 08:49:38;;;;;;;5.80;4.45;;;21.70;99.90;;;;;;5061048;28;20051;-71
2022/08/10 08:52:15;;;;;;;6.15;4.22;;;21.70;99.90;;;;;;5094897;28;20048;-69
2022/08/10 08:54:52;;;;;;;3.85;3.45;;;21.90;99.90;;;;;;5095276;28;20087;-69
2022/08/10 08:57:41;;;;;;;9.10;3.97;;;22.00;99.90;;;;;;5095109;28;20048;-70
2022/08/10 09:00:17;;;;;;;5.75;4.20;;;22.00;99.90;;;;;;5095219;28;20040;-72
2022/08/10 09:03:00;;;;;;;6.63;4.07;;;22.10;99.90;;;;;;5095189;28;20036;-67
2022/08/10 09:05:39;;;;;;;5.70;4.23;;;22.20;99.90;;;;;;5077237;28;20106;-69
2022/08/10 09:08:31;;;;;;;7.15;4.97;;;22.20;99.90;;;;;;5095043;28;20074;-70
2022/08/10 09:11:21;;;;;;;7.38;4.57;;;22.30;99.90;;;;;;5095016;28;20366;-69
2022/08/10 09:14:13;;;;;;;9.25;4.53;;;22.20;99.90;;;;;;5094899;28;20117;-70
2022/08/10 09:17:14;;;;;;;5.55;3.80;;;22.30;99.90;;;;;;5094500;28;20055;-69
2022/08/10 09:20:06;;;;;;;6.43;4.53;;;22.30;99.90;;;;;;5009664;28;20048;-69
2022/08/10 09:23:00;;;;;;;6.47;3.97;;;22.30;99.90;;;;;;5094869;28;20122;-68
2022/08/10 09:25:33;;;;;;;5.95;4.10;;;22.40;99.90;;;;;;5094773;28;20048;-69
2022/08/10 09:28:03;;;;;;;6.73;3.93;;;22.40;99.90;;;;;;5094639;28;20051;-69
2022/08/10 09:30:43;;;;;;;6.63;4.47;;;22.50;99.90;;;;;;5094703;28;20087;-68
2022/08/10 09:33:17;;;;;;;5.95;4.32;;;22.50;99.90;;;;;;5094754;28;20127;-70
2022/08/10 09:36:02;;;;;;;7.82;4.82;;;22.50;99.90;;;;;;5076714;28;20048;-73
2022/08/10 09:38:33;;;;;;;7.30;4.20;;;22.60;99.90;;;;;;5094650;28;20123;-70
2022/08/10 09:41:29;;;;;;;9.60;4.05;;;22.60;99.90;;;;;;5094728;28;20058;-71
2022/08/10 09:44:31;;;;;;;7.78;4.80;;;22.60;99.90;;;;;;5094601;28;20036;-70
2022/08/10 09:47:10;;;;;;;5.30;4.00;;;22.60;99.90;;;;;;5094707;28;20087;-71
2022/08/10 09:49:44;;;;;;;8.25;3.88;;;22.70;99.90;;;;;;5094584;28;20047;-67
2022/08/10 09:52:27;;;;;;;6.65;3.90;;;22.70;99.90;;;;;;5094509;28;20056;-69
2022/08/10 09:55:13;;;;;;;7.75;4.20;;;22.80;99.90;;;;;;5094804;28;20118;-70
2022/08/10 09:57:44;;;;;;;7.45;4.15;;;22.90;99.90;;;;;;5095354;28;20048;-69
2022/08/10 10:00:13;;;;;;;8.30;4.82;;;23.00;99.90;;;;;;5097855;28;20043;-72
2022/08/10 10:03:00;;;;;;;5.78;3.72;;;23.00;99.90;;;;;;5098315;28;20055;-68
2022/08/10 10:05:48;;;;;;;8.88;5.43;;;23.00;99.90;;;;;;5098045;28;20059;-71
2022/08/10 10:08:22;;;;;;;7.43;4.72;;;23.00;99.90;;;;;;5098019;28;20051;-69
2022/08/10 10:11:03;;;;;;;;;;;23.00;99.90;;;;;;5080878;28;20048;-71
2022/08/10 10:13:54;;;;;;;7.15;5.13;;;23.00;99.90;;;;;;5097904;28;19919;-71
2022/08/10 10:16:45;;;;;;;6.43;3.88;;;23.00;99.90;;;;;;5097954;28;20044;-70
2022/08/10 10:19:33;;;;;;;6.00;3.83;;;23.10;99.90;;;;;;5097802;28;20481;-71
2022/08/10 10:22:25;;;;;;;6.50;4.30;;;23.10;99.90;;;;;;5097890;28;20040;-69
2022/08/10 10:25:00;;;;;;;9.45;5.13;;;23.10;99.90;;;;;;5097746;28;20082;-70
2022/08/10 10:27:39;;;;;;;6.35;4.20;;;23.00;99.90;;;;;;5097776;28;20409;-70
2022/08/10 10:30:07;;;;;;;5.95;4.47;;;23.10;99.90;;;;;;5097701;28;20079;-69
2022/08/10 10:33:05;;;;;;;7.18;4.90;;;23.20;99.90;;;;;;5097436;28;20036;-70
2022/08/10 10:35:46;;;;;;;7.88;4.20;;;23.20;99.90;;;;;;5079828;28;20477;-68
2022/08/10 10:38:12;;;;;;;6.40;4.10;;;23.20;99.90;;;;;;5097615;28;20044;-71
2022/08/10 10:41:02;;;;;;;6.63;4.25;;;23.10;99.90;;;;;;5097474;28;20058;-70
2022/08/10 10:43:43;;;;;;;7.10;3.60;;;23.20;99.90;;;;;;5097372;28;20044;-70
2022/08/10 10:46:32;;;;;;;9.27;4.85;;;23.20;99.90;;;;;;5079308;28;20477;-70
2022/08/10 10:49:09;;;;;;;4.82;3.70;;;23.30;99.90;;;;;;5097221;28;20044;-69
2022/08/10 10:51:46;;;;;;;5.53;3.80;;;23.40;99.90;;;;;;5097173;28;20036;-68
2022/08/10 10:54:23;;;;;;;5.25;3.75;;;23.30;99.90;;;;;;5097155;28;20157;-69
2022/08/10 10:57:14;;;;;;;6.07;3.92;;;23.30;99.90;;;;;;5062521;28;20054;-69
2022/08/10 11:00:00;;;;;;;7.20;4.30;;;23.40;99.90;;;;;;5097181;28;20044;-68
2022/08/10 11:02:45;;;;;;;5.65;3.80;;;23.50;99.90;;;;;;5096992;28;20044;-72
2022/08/10 11:05:30;;;;;;;;;;;23.60;99.90;;;;;;5097373;28;20040;-70
2022/08/10 11:08:00;;;;;;;9.35;4.70;;;23.60;99.90;;;;;;5096724;28;19920;-71
2022/08/10 11:10:58;;;;;;;7.68;4.35;;;23.60;99.90;;;;;;5078131;28;20321;-74
2022/08/10 11:13:39;;;;;;;6.60;4.03;;;23.80;99.90;;;;;;5072125;28;20052;-71
2022/08/10 11:16:12;;;;;;;5.30;3.38;;;23.80;99.90;;;;;;5096704;28;20131;-69
2022/08/10 11:19:06;;;;;;;5.38;3.55;;;23.90;99.90;;;;;;5096307;28;20517;-70
2022/08/10 11:22:21;;;;;;;7.35;3.33;;;24.00;99.90;;;;;;5096583;28;20048;-71
2022/08/10 11:25:00;;;;;;;;;;;24.00;99.90;;;;;;4995561;28;20393;-70
2022/08/10 11:27:47;;;;;;;5.07;3.70;;;24.00;99.90;;;;;;5094388;28;19980;-70
2022/08/10 11:30:19;;;;;;;7.30;3.78;;;24.00;99.90;;;;;;5096500;28;20044;-68
2022/08/10 11:32:54;;;;;;;5.43;3.63;;;24.10;99.90;;;;;;5096360;28;20525;-70
2022/08/10 11:35:42;;;;;;;8.50;3.92;;;24.20;99.90;;;;;;5096444;28;20040;-69
2022/08/10 11:38:24;;;;;;;8.68;4.07;;;24.50;99.90;;;;;;5096262;28;20040;-68
2022/08/10 11:40:56;;;;;;;7.68;3.83;;;24.50;99.90;;;;;;5078521;28;20123;-70
2022/08/10 11:43:26;;;;;;;4.75;4.05;;;24.60;99.90;;;;;;5096115;28;20131;-70
2022/08/10 11:46:27;;;;;;;10.57;4.93;;;24.70;99.90;;;;;;5095920;28;20056;-69
2022/08/10 11:49:11;;;;;;;7.75;5.40;;;24.70;99.90;;;;;;5096047;28;20392;-68
2022/08/10 11:51:37;;;;;;;;;;;24.60;99.90;;;;;;5096551;28;20130;-69
2022/08/10 11:54:09;;;;;;;5.15;3.30;;;24.60;99.90;;;;;;5095730;28;19982;-69
2022/08/10 11:56:51;;;;;;;8.48;3.35;;;24.60;99.90;;;;;;5095920;28;20048;-70
2022/08/10 12:02:05;;;;;;;6.25;3.42;;;24.80;99.90;;;;;;5095954;28;20055;-71
2022/08/10 12:04:33;;;;;;;5.18;3.17;;;24.90;99.90;;;;;;5095673;28;20044;-70
2022/08/10 12:07:03;;;;;;;7.55;4.57;;;25.00;99.90;;;;;;5095798;28;20043;-70
2022/08/10 12:09:31;;;;;;;6.85;4.25;;;25.10;99.90;;;;;;5095560;28;20430;-68
2022/08/10 12:11:59;;;;;;;6.03;3.70;;;25.20;99.90;;;;;;5095780;28;20040;-68
2022/08/10 12:14:34;;;;;;;5.10;3.85;;;25.20;99.90;;;;;;5095537;28;20036;-71
2022/08/10 12:17:15;;;;;;;8.73;4.45;;;25.30;99.90;;;;;;5095533;28;20067;-71
2022/08/10 12:19:55;;;;;;;6.60;3.25;;;25.30;99.90;;;;;;5095587;28;20090;-69
2022/08/10 12:22:56;;;;;;;6.20;4.47;;;25.50;99.90;;;;;;5095104;28;20420;-71
2022/08/10 12:25:35;;;;;;;6.25;4.13;;;25.50;99.90;;;;;;5095390;28;20061;-72
2022/08/10 12:28:12;;;;;;;10.77;3.97;;;25.60;99.90;;;;;;5078035;28;20055;-68
2022/08/10 12:30:45;;;;;;;5.38;3.72;;;25.70;99.90;;;;;;5095563;28;20335;-69
2022/08/10 12:33:21;;;;;;;5.85;3.78;;;25.80;99.90;;;;;;5077674;28;20110;-68
2022/08/10 12:36:01;;;;;;;5.55;3.50;;;26.00;99.90;;;;;;5095287;28;20036;-69
2022/08/10 12:38:45;;;;;;;7.90;3.47;;;26.30;99.90;;;;;;5077711;28;20040;-70
2022/08/10 12:41:22;;;;;;;6.30;4.45;;;26.60;99.90;;;;;;5095357;28;20048;-70
2022/08/10 12:43:55;;;;;;;6.95;3.25;;;26.80;99.90;;;;;;5095074;28;20094;-71
2022/08/10 12:46:29;;;;;;;4.30;2.88;;;27.20;99.90;;;;;;5095084;28;20048;-70
2022/08/10 12:49:16;;;;;;;4.78;3.38;;;27.80;99.90;;;;;;5095460;28;20043;-73
2022/08/10 12:51:46;;;;;;;10.85;3.30;;;28.30;99.90;;;;;;5077258;28;20131;-69
2022/08/10 12:54:14;;;;;;;6.25;3.10;;;28.90;99.90;;;;;;5095029;28;20142;-70
2022/08/10 12:56:48;;;;;;;4.40;2.90;;;29.40;99.90;;;;;;5094972;28;20122;-70
2022/08/10 12:59:15;;;;;;;;;;;29.90;99.90;;;;;;5095531;28;20135;-70
2022/08/10 13:01:45;;;;;;;5.53;3.70;;;30.10;98.40;;;;;;5095056;28;20018;-72
2022/08/10 13:04:16;;;;;;;6.13;3.40;;;30.40;99.60;;;;;;5077404;28;20446;-70
2022/08/10 13:06:46;;;;;;;3.97;2.97;;;30.90;98.70;;;;;;5094969;28;21037;-70
2022/08/10 13:09:21;;;;;;;4.20;2.75;;;31.30;97.00;;;;;;5094787;28;20051;-72
2022/08/10 13:11:53;;;;;;;3.78;2.72;;;31.80;96.20;;;;;;5077460;28;20091;-73
2022/08/10 13:14:34;;;;;;;6.65;2.60;;;31.90;95.30;;;;;;5095022;28;20032;-72
2022/08/10 13:17:03;;;;;;;7.53;3.55;;;32.40;95.00;;;;;;5094992;28;20189;-71
2022/08/10 13:19:36;;;;;;;3.90;3.22;;;32.60;94.30;;;;;;5094772;28;20450;-73